Time;durP1;ratioP1;P1;durP2;ratioP2;P2;SDS_P1;SDS_P2;PMS_P1;PMS_P2;Temp;Humidity;BMP_temperature;BMP_pressure;BME280_temperature;BME280_humidity;BME280_pressure;Samples;Min_cycle;Max_cycle;Signal;HPM_P1;HPM_P2
2022/03/06 00:01:58;;;;;;;13.77;5.90;;;;;;;0.89;89.63;102434.34;10407803;28;20042;-63
2022/03/06 00:07:20;;;;;;;8.60;5.15;;;;;;;1.13;89.80;102434.34;10408737;28;20046;-63
2022/03/06 00:12:41;;;;;;;12.68;5.07;;;;;;;1.05;89.07;102436.91;10371367;28;20053;-64
2022/03/06 00:18:03;;;;;;;9.95;5.13;;;;;;;1.02;89.73;102425.81;10405177;28;20053;-63
2022/03/06 00:23:25;;;;;;;7.80;5.00;;;;;;;1.03;89.63;102428.34;10374874;28;20065;-63
2022/03/06 00:28:47;;;;;;;10.07;5.47;;;;;;;1.01;89.98;102435.22;10362576;28;20392;-64
2022/03/06 00:34:08;;;;;;;8.90;5.18;;;;;;;1.03;89.67;102438.63;10361465;28;20056;-62
2022/03/06 00:39:30;;;;;;;13.55;5.00;;;;;;;0.96;90.00;102439.50;10369549;28;20050;-63
2022/03/06 00:44:53;;;;;;;7.78;4.85;;;;;;;1.05;90.19;102436.91;10414709;28;20064;-62
2022/03/06 00:50:15;;;;;;;8.98;5.10;;;;;;;1.10;90.47;102434.34;10415849;28;20061;-63
2022/03/06 00:55:37;;;;;;;9.73;4.80;;;;;;;1.10;90.02;102434.34;10375108;28;20057;-63
2022/03/06 01:00:59;;;;;;;6.53;4.90;;;;;;;1.17;89.51;102436.91;10360377;28;20052;-63
2022/03/06 01:06:21;;;;;;;8.18;5.22;;;;;;;1.11;90.59;102439.50;10411339;28;20052;-63
2022/03/06 01:11:42;;;;;;;11.00;5.38;;;;;;;1.14;91.14;102442.06;10409452;28;20045;-63
2022/03/06 01:17:04;;;;;;;10.38;5.30;;;;;;;1.19;90.22;102440.31;10440554;28;20088;-63
2022/03/06 01:22:26;;;;;;;9.52;5.05;;;;;;;1.28;90.73;102444.59;10404818;28;20060;-63
2022/03/06 01:27:48;;;;;;;8.98;4.95;;;;;;;1.23;90.14;102442.03;10376425;28;20060;-63
2022/03/06 01:33:09;;;;;;;10.15;5.25;;;;;;;1.29;89.89;102442.06;10386571;28;20057;-63
2022/03/06 01:38:31;;;;;;;8.93;5.15;;;;;;;1.30;88.91;102445.47;10386793;28;20140;-63
2022/03/06 01:43:53;;;;;;;7.78;5.00;;;;;;;1.31;89.75;102445.44;10371623;28;20688;-63
2022/03/06 01:49:16;;;;;;;8.07;5.47;;;;;;;1.36;89.57;102443.75;10412545;28;20084;-63
2022/03/06 01:54:38;;;;;;;9.40;5.28;;;;;;;1.40;88.67;102445.44;10407313;28;20053;-63
2022/03/06 02:00:07;;;;;;;11.70;5.47;;;;;;;1.42;89.62;102443.75;10423297;28;20391;-63
2022/03/06 02:05:29;;;;;;;8.60;4.85;;;;;;;1.35;89.01;102448.88;10410395;28;20060;-63
2022/03/06 02:10:51;;;;;;;8.48;5.20;;;;;;;1.40;90.03;102445.44;10407719;28;20048;-63
2022/03/06 02:16:12;;;;;;;7.63;4.53;;;;;;;1.35;89.72;102444.59;10441862;28;20084;-63
2022/03/06 02:21:34;;;;;;;10.55;4.75;;;;;;;1.36;89.49;102443.75;10389957;28;20490;-63
2022/03/06 02:26:56;;;;;;;8.93;4.65;;;;;;;1.34;88.58;102444.59;10399803;28;20061;-63
2022/03/06 02:32:20;;;;;;;9.32;4.72;;;;;;;1.39;88.75;102446.31;10410480;28;20497;-63
2022/03/06 02:37:42;;;;;;;7.72;4.35;;;;;;;1.42;88.65;102448.88;10407946;28;20527;-63
2022/03/06 02:43:05;;;;;;;6.20;3.67;;;;;;;1.46;89.31;102445.41;10408252;28;20056;-63
2022/03/06 02:48:27;;;;;;;6.38;4.07;;;;;;;1.40;88.09;102445.44;10409753;28;20054;-63
2022/03/06 02:53:48;;;;;;;7.80;4.30;;;;;;;1.41;89.03;102442.03;10407932;28;20045;-63
2022/03/06 02:59:10;;;;;;;5.85;3.90;;;;;;;1.40;89.03;102450.59;10409203;28;20053;-63
2022/03/06 03:04:37;;;;;;;7.95;4.10;;;;;;;1.42;88.26;102448.88;10387872;28;20426;-63
2022/03/06 03:09:59;;;;;;;5.47;3.45;;;;;;;1.38;87.75;102446.31;10381589;28;20046;-64
2022/03/06 03:15:21;;;;;;;6.30;3.70;;;;;;;1.41;88.24;102446.28;10358958;28;20041;-63
2022/03/06 03:20:43;;;;;;;6.95;3.38;;;;;;;1.36;88.07;102450.59;10407976;28;20057;-62
2022/03/06 03:26:04;;;;;;;8.18;3.67;;;;;;;1.45;87.99;102448.88;10392962;28;20073;-63
2022/03/06 03:31:26;;;;;;;6.57;3.38;;;;;;;1.42;87.40;102458.28;10372456;28;20126;-63
2022/03/06 03:36:48;;;;;;;5.28;3.47;;;;;;;1.42;87.16;102463.41;10405735;28;20057;-63
2022/03/06 03:42:10;;;;;;;4.30;2.60;;;;;;;1.48;87.56;102464.25;10405949;28;20072;-63
2022/03/06 03:47:31;;;;;;;5.22;2.80;;;;;;;1.48;86.55;102459.13;10410185;28;20045;-63
2022/03/06 03:52:53;;;;;;;5.20;2.90;;;;;;;1.54;86.02;102463.38;10374754;28;20046;-63
2022/03/06 03:58:15;;;;;;;5.18;2.75;;;;;;;1.52;85.78;102460.84;10402908;28;20055;-63
2022/03/06 04:03:36;;;;;;;6.40;3.03;;;;;;;1.52;85.66;102460.84;10415302;28;20049;-63
2022/03/06 04:08:58;;;;;;;6.28;2.83;;;;;;;1.53;84.90;102461.72;10413574;28;20053;-64
2022/03/06 04:14:20;;;;;;;5.85;2.85;;;;;;;1.52;85.21;102460.84;10412489;28;20517;-63
2022/03/06 04:19:41;;;;;;;5.10;2.75;;;;;;;1.51;84.95;102469.41;10413196;28;20525;-63
2022/03/06 04:25:04;;;;;;;5.82;2.90;;;;;;;1.47;84.72;102472.81;10402948;28;20069;-64
2022/03/06 04:30:26;;;;;;;6.18;2.83;;;;;;;1.47;84.82;102477.13;10372140;28;20052;-63
2022/03/06 04:35:50;;;;;;;6.43;2.38;;;;;;;1.40;84.83;102489.13;10409564;28;20088;-63
2022/03/06 04:41:11;;;;;;;4.90;2.78;;;;;;;1.41;86.12;102488.25;10399213;28;20060;-63
2022/03/06 04:46:33;;;;;;;5.88;2.67;;;;;;;1.37;86.42;102494.25;10411732;28;20053;-63
2022/03/06 04:51:55;;;;;;;6.38;2.92;;;;;;;1.28;85.67;102501.97;10412317;28;20379;-63
2022/03/06 04:57:17;;;;;;;4.45;2.38;;;;;;;1.34;85.46;102507.09;10411363;28;20053;-63
2022/03/06 05:02:38;;;;;;;5.45;2.40;;;;;;;1.30;84.89;102500.25;10402667;28;20042;-63
2022/03/06 05:08:00;;;;;;;4.18;2.20;;;;;;;1.23;85.29;102503.69;10411997;28;20045;-63
2022/03/06 05:13:23;;;;;;;4.05;2.28;;;;;;;1.22;85.13;102501.97;10410381;28;20052;-63
2022/03/06 05:18:44;;;;;;;4.32;2.03;;;;;;;1.16;84.98;102494.28;10398018;28;20222;-63
2022/03/06 05:24:06;;;;;;;6.22;2.55;;;;;;;1.12;86.43;102500.25;10451368;28;20044;-63
2022/03/06 05:29:28;;;;;;;3.85;2.30;;;;;;;1.00;85.63;102500.25;10419425;28;20414;-64
2022/03/06 05:34:49;;;;;;;4.20;2.28;;;;;;;0.95;85.22;102509.66;10410509;28;20064;-63
2022/03/06 05:40:11;;;;;;;4.82;2.70;;;;;;;0.89;85.14;102510.47;10381732;28;20056;-62
2022/03/06 05:45:33;;;;;;;5.65;2.50;;;;;;;0.87;85.42;102517.34;10398570;28;20064;-63
2022/03/06 05:50:55;;;;;;;6.60;2.42;;;;;;;0.77;83.63;102521.59;10369825;28;20054;-63
2022/03/06 05:56:16;;;;;;;4.07;2.10;;;;;;;0.74;84.21;102536.09;10403858;28;20060;-63
2022/03/06 06:01:38;;;;;;;6.20;2.30;;;;;;;0.83;85.04;102531.03;10403576;28;20141;-63
2022/03/06 06:07:00;;;;;;;4.85;2.28;;;;;;;0.87;84.24;102543.00;10369286;28;20057;-63
2022/03/06 06:12:21;;;;;;;3.85;2.10;;;;;;;0.87;85.15;102553.28;10384827;28;20399;-63
2022/03/06 06:17:43;;;;;;;5.68;2.10;;;;;;;0.94;83.20;102561.00;10392071;28;20050;-62
2022/03/06 06:23:04;;;;;;;6.65;2.13;;;;;;;0.96;83.11;102565.25;10432576;28;20536;-63
2022/03/06 06:28:26;;;;;;;5.60;2.40;;;;;;;0.96;83.18;102569.53;10429025;28;20068;-62
2022/03/06 06:33:48;;;;;;;5.75;2.40;;;;;;;1.04;83.04;102583.25;10408567;28;20049;-63
2022/03/06 06:39:09;;;;;;;5.28;2.40;;;;;;;1.01;80.68;102599.50;10407478;28;20053;-63
2022/03/06 06:44:31;;;;;;;4.25;2.28;;;;;;;1.14;81.62;102590.97;10407261;28;20047;-63
2022/03/06 06:49:53;;;;;;;9.32;3.10;;;;;;;1.13;80.82;102594.41;10367560;28;20065;-62
2022/03/06 06:55:15;;;;;;;4.40;2.67;;;;;;;1.17;78.74;102596.09;10390753;28;20049;-62
2022/03/06 07:00:36;;;;;;;4.20;2.95;;;;;;;1.17;79.19;102595.25;10407667;28;20095;-62
2022/03/06 07:05:59;;;;;;;6.63;2.90;;;;;;;1.28;79.72;102597.00;10388274;28;20054;-63
2022/03/06 07:11:20;;;;;;;4.95;3.08;;;;;;;1.38;79.21;102610.72;10407619;28;20049;-63
2022/03/06 07:16:45;;;;;;;5.53;3.35;;;;;;;1.42;78.30;102613.28;10406025;28;20046;-63
2022/03/06 07:22:07;;;;;;;7.85;3.30;;;;;;;1.53;78.23;102614.13;10405158;28;20060;-62
2022/03/06 07:27:28;;;;;;;4.82;3.50;;;;;;;1.63;78.84;102630.41;10406859;28;20418;-63
2022/03/06 07:32:51;;;;;;;7.03;3.20;;;;;;;1.72;77.47;102623.56;10405641;28;20053;-63
2022/03/06 07:38:14;;;;;;;6.00;2.83;;;;;;;1.76;76.96;102625.25;10413816;28;20046;-63
2022/03/06 07:43:35;;;;;;;7.82;3.15;;;;;;;1.76;76.91;102625.25;10390340;28;20046;-65
2022/03/06 07:48:57;;;;;;;4.35;2.70;;;;;;;1.78;77.58;102636.41;10405340;28;20049;-65
2022/03/06 07:54:19;;;;;;;5.00;2.72;;;;;;;1.79;76.14;102643.25;10406429;28;20054;-62
2022/03/06 07:59:40;;;;;;;6.32;2.78;;;;;;;1.81;75.09;102649.25;10368038;28;20061;-65
2022/03/06 08:05:04;;;;;;;5.93;2.72;;;;;;;1.86;74.44;102652.69;10402172;28;20053;-64
2022/03/06 08:10:25;;;;;;;4.75;2.90;;;;;;;1.86;73.93;102652.69;10365474;28;20042;-64
2022/03/06 08:15:47;;;;;;;5.30;2.53;;;;;;;1.85;73.65;102640.69;10398296;28;20049;-64
2022/03/06 08:21:08;;;;;;;5.30;3.10;;;;;;;1.86;75.34;102645.00;10400736;28;20498;-64
2022/03/06 08:26:30;;;;;;;4.97;2.97;;;;;;;1.91;74.74;102650.97;10364568;28;20057;-64
2022/03/06 08:31:52;;;;;;;6.45;2.50;;;;;;;1.94;74.75;102658.69;10364772;28;20050;-64
2022/03/06 08:37:13;;;;;;;6.80;3.17;;;;;;;2.10;74.97;102650.09;10370996;28;20053;-64
2022/03/06 08:42:36;;;;;;;5.68;3.45;;;;;;;2.11;75.83;102654.38;10402259;28;20050;-64
2022/03/06 08:47:57;;;;;;;4.97;3.22;;;;;;;2.06;74.28;102645.81;10411137;28;20046;-64
2022/03/06 08:53:19;;;;;;;5.40;3.20;;;;;;;2.15;75.93;102638.09;10412114;28;20053;-65
2022/03/06 08:58:40;;;;;;;4.75;3.00;;;;;;;2.21;74.61;102650.94;10386357;28;20058;-64
2022/03/06 09:04:02;;;;;;;5.85;3.38;;;;;;;2.29;73.41;102644.09;10384781;28;20041;-64
2022/03/06 09:09:24;;;;;;;6.30;3.60;;;;;;;2.31;74.30;102642.38;10389016;28;20054;-64
2022/03/06 09:14:45;;;;;;;6.57;3.65;;;;;;;2.50;73.37;102633.72;10370877;28;20050;-64
2022/03/06 09:20:08;;;;;;;6.32;3.38;;;;;;;2.47;74.54;102631.19;10386775;28;20057;-64
2022/03/06 09:25:32;;;;;;;4.95;3.53;;;;;;;2.58;71.80;102637.16;10390518;28;20081;-64
2022/03/06 09:30:54;;;;;;;6.35;3.55;;;;;;;2.72;71.96;102635.38;10369902;28;20061;-64
2022/03/06 09:36:16;;;;;;;5.15;3.33;;;;;;;2.70;70.22;102642.25;10370013;28;20119;-64
2022/03/06 09:41:38;;;;;;;6.70;3.33;;;;;;;2.83;67.25;102648.19;10392419;28;20054;-64
2022/03/06 09:47:00;;;;;;;4.57;3.13;;;;;;;2.76;68.29;102643.06;10409124;28;20139;-64
2022/03/06 09:52:21;;;;;;;11.93;4.00;;;;;;;2.83;67.96;102643.91;10395650;28;20041;-64
2022/03/06 09:57:43;;;;;;;5.63;3.65;;;;;;;2.90;68.61;102656.75;10409812;28;20052;-64
2022/03/06 10:03:05;;;;;;;6.50;3.67;;;;;;;2.85;67.94;102664.50;10403372;28;20046;-64
2022/03/06 10:08:28;;;;;;;5.82;3.25;;;;;;;2.96;68.62;102670.47;10409567;28;20076;-64
2022/03/06 10:13:50;;;;;;;9.02;3.80;;;;;;;2.95;67.20;102663.59;10368194;28;20042;-64
2022/03/06 10:19:11;;;;;;;6.93;3.65;;;;;;;3.02;68.40;102661.84;10417809;28;20045;-64
2022/03/06 10:24:45;;;;;;;5.03;3.60;;;;;;;3.18;65.84;102664.34;10449850;28;20060;-64
2022/03/06 10:30:30;;;;;;;4.00;3.15;;;;;;;3.21;66.37;102654.00;10416635;28;20049;-64
2022/03/06 10:35:55;;;;;;;6.72;3.75;;;;;;;3.21;66.20;102669.47;10413260;28;20102;-64
2022/03/06 10:41:17;;;;;;;7.18;3.80;;;;;;;3.21;66.34;102669.47;10387765;28;20050;-62
2022/03/06 10:46:40;;;;;;;6.78;3.40;;;;;;;3.35;63.64;102677.97;10381979;28;20081;-65
2022/03/06 10:52:20;;;;;;;3.80;2.90;;;;;;;3.36;66.03;102669.38;10369543;28;20544;-64
2022/03/06 10:57:55;;;;;;;4.03;3.03;;;;;;;3.45;65.02;102669.34;10406764;28;20057;-64
2022/03/06 11:03:17;;;;;;;4.03;2.90;;;;;;;3.41;64.31;102662.50;10405568;28;20049;-64
2022/03/06 11:08:39;;;;;;;5.18;3.00;;;;;;;3.55;62.37;102665.84;10392943;28;20136;-64
2022/03/06 11:14:01;;;;;;;4.00;2.42;;;;;;;3.64;63.26;102654.59;10406287;28;20053;-64
2022/03/06 11:19:25;;;;;;;6.97;2.75;;;;;;;3.51;61.28;102653.81;10405427;28;20055;-65
2022/03/06 11:24:51;;;;;;;6.45;2.13;;;;;;;3.66;61.59;102658.88;10405665;28;20798;-64
2022/03/06 11:30:20;;;;;;;5.68;2.75;;;;;;;3.71;63.56;102645.97;10407106;28;20057;-64
2022/03/06 11:35:44;;;;;;;4.30;2.88;;;;;;;3.78;64.17;102648.50;10384915;28;20622;-65
2022/03/06 11:41:10;;;;;;;3.58;2.80;;;;;;;3.83;64.16;102654.44;10384407;28;20046;-64
2022/03/06 11:46:39;;;;;;;4.13;2.67;;;;;;;3.80;64.04;102646.72;10365289;28;20050;-64
2022/03/06 11:52:00;;;;;;;5.25;2.67;;;;;;;3.84;64.01;102633.81;10379759;28;20080;-64
2022/03/06 11:57:44;;;;;;;4.53;2.08;;;;;;;3.91;62.31;102629.47;10365377;28;20055;-64
2022/03/06 12:03:06;;;;;;;6.00;2.63;;;;;;;3.90;62.66;102623.44;10398993;28;20459;-64
2022/03/06 12:08:28;;;;;;;6.22;2.67;;;;;;;4.07;63.12;102618.16;10401752;28;20049;-64
2022/03/06 12:13:50;;;;;;;3.65;2.53;;;;;;;4.28;62.32;102625.66;10359533;28;20450;-64
2022/03/06 12:19:11;;;;;;;4.32;2.55;;;;;;;4.46;61.62;102620.31;10380789;28;20145;-64
2022/03/06 12:24:33;;;;;;;4.18;2.83;;;;;;;4.53;61.25;102621.94;10435120;28;20046;-64
2022/03/06 12:30:00;;;;;;;4.15;2.40;;;;;;;4.68;62.02;102611.41;10372785;28;20050;-64
2022/03/06 12:35:22;;;;;;;5.70;2.75;;;;;;;4.75;63.14;102614.78;10372795;28;20050;-65
2022/03/06 12:40:44;;;;;;;6.00;2.75;;;;;;;4.85;61.76;102608.63;10385814;28;20052;-65
2022/03/06 12:46:06;;;;;;;3.95;2.53;;;;;;;4.96;62.26;102606.75;10371870;28;20054;-65
2022/03/06 12:51:30;;;;;;;7.93;2.45;;;;;;;4.89;62.05;102602.56;10386632;28;20618;-65
2022/03/06 12:56:55;;;;;;;6.20;2.30;;;;;;;4.92;61.89;102597.34;10412218;28;20060;-64
2022/03/06 13:02:21;;;;;;;5.35;2.72;;;;;;;4.88;62.58;102587.91;10404419;28;20076;-64
2022/03/06 13:07:43;;;;;;;2.88;2.25;;;;;;;5.12;61.17;102584.16;10411163;28;20053;-65
2022/03/06 13:13:06;;;;;;;3.47;2.58;;;;;;;5.01;61.68;102580.88;10410742;28;20390;-64
2022/03/06 13:18:33;;;;;;;3.67;2.65;;;;;;;4.87;62.15;102570.72;10410282;28;20045;-64
2022/03/06 13:24:01;;;;;;;3.60;2.40;;;;;;;5.03;60.01;102572.22;10448811;28;20390;-65
2022/03/06 13:29:23;;;;;;;5.07;2.33;;;;;;;5.02;60.86;102567.91;10424144;28;20056;-64
2022/03/06 13:34:45;;;;;;;4.25;2.70;;;;;;;5.14;63.11;102567.72;10411298;28;20046;-65
2022/03/06 13:40:14;;;;;;;5.93;2.88;;;;;;;4.92;62.33;102560.31;10387074;28;20064;-65
2022/03/06 13:45:37;;;;;;;4.82;2.72;;;;;;;4.85;63.02;102551.78;10396633;28;20038;-64
2022/03/06 13:50:58;;;;;;;5.78;2.60;;;;;;;4.94;63.52;102558.56;10370184;28;20053;-65
2022/03/06 13:56:41;;;;;;;7.68;2.90;;;;;;;4.94;61.99;102546.50;10394237;28;20148;-65
2022/03/06 14:02:08;;;;;;;8.68;2.58;;;;;;;4.96;63.86;102547.31;10408576;28;20048;-64
2022/03/06 14:07:30;;;;;;;6.68;3.28;;;;;;;4.96;64.62;102534.41;10411037;28;20053;-65
2022/03/06 14:12:52;;;;;;;5.90;2.90;;;;;;;5.21;62.59;102543.50;10409674;28;20042;-64
2022/03/06 14:18:50;;;;;;;4.05;2.78;;;;;;;5.36;62.91;102535.53;10410354;28;20130;-64
2022/03/06 14:24:14;;;;;;;4.88;2.75;;;;;;;5.47;62.37;102541.38;10369072;28;20049;-64
2022/03/06 14:29:36;;;;;;;4.10;2.50;;;;;;;5.21;63.11;102537.47;10369992;28;20049;-64
2022/03/06 14:34:58;;;;;;;5.13;2.70;;;;;;;5.25;64.67;102532.22;10369127;28;20060;-65
2022/03/06 14:40:20;;;;;;;5.75;2.90;;;;;;;5.17;63.49;102538.38;10393135;28;20053;-65
2022/03/06 14:45:41;;;;;;;4.25;2.67;;;;;;;5.33;63.95;102532.97;10408574;28;20045;-64
2022/03/06 14:51:05;;;;;;;4.65;2.83;;;;;;;5.47;64.36;102531.03;10372286;28;20065;-65
2022/03/06 14:56:26;;;;;;;6.55;2.67;;;;;;;5.55;63.45;102523.97;10367652;28;20057;-65
2022/03/06 15:01:48;;;;;;;8.95;3.00;;;;;;;5.56;63.56;102525.69;10365447;28;20049;-65
2022/03/06 15:07:15;;;;;;;6.60;2.63;;;;;;;5.42;65.29;102532.81;10406454;28;20124;-65
2022/03/06 15:12:37;;;;;;;7.13;2.85;;;;;;;5.17;64.64;102534.09;10407824;28;20413;-64
2022/03/06 15:17:59;;;;;;;7.88;3.08;;;;;;;5.24;64.91;102530.53;10387943;28;20424;-64
2022/03/06 15:23:21;;;;;;;5.70;2.42;;;;;;;5.11;67.17;102526.41;10400713;28;20051;-64
2022/03/06 15:28:43;;;;;;;6.53;3.00;;;;;;;5.45;66.27;102527.59;10366981;28;20132;-65
2022/03/06 15:34:05;;;;;;;7.38;2.85;;;;;;;5.43;66.95;102533.69;10388385;28;20487;-65
2022/03/06 15:39:26;;;;;;;6.20;2.65;;;;;;;5.38;69.61;102531.19;10393830;28;20046;-64
2022/03/06 15:44:52;;;;;;;5.95;2.85;;;;;;;5.55;68.86;102536.91;10390270;28;20133;-64
2022/03/06 15:50:14;;;;;;;5.40;2.90;;;;;;;5.98;68.08;102530.13;10366392;28;20061;-65
2022/03/06 15:55:35;;;;;;;6.13;2.80;;;;;;;5.70;69.01;102523.72;10379666;28;20479;-64
2022/03/06 16:00:58;;;;;;;6.82;2.53;;;;;;;6.18;66.04;102517.66;10384578;28;20495;-65
2022/03/06 16:06:23;;;;;;;7.95;3.47;;;;;;;5.78;68.86;102521.88;10419827;28;20056;-65
2022/03/06 16:11:47;;;;;;;7.55;3.28;;;;;;;5.24;71.54;102521.94;10401359;28;20518;-64
2022/03/06 16:17:08;;;;;;;5.32;2.63;;;;;;;5.12;70.60;102528.13;10398328;28;20053;-64
2022/03/06 16:22:30;;;;;;;5.22;2.67;;;;;;;5.06;72.31;102519.63;10440476;28;20059;-64
2022/03/06 16:27:52;;;;;;;5.63;2.75;;;;;;;4.85;72.65;102527.69;10439229;28;20054;-64
2022/03/06 16:33:15;;;;;;;4.93;2.67;;;;;;;4.72;73.27;102516.66;10391101;28;20044;-64
2022/03/06 16:38:37;;;;;;;7.15;2.83;;;;;;;4.66;73.16;102525.41;10437314;28;20061;-66
2022/03/06 16:43:59;;;;;;;8.13;3.10;;;;;;;4.59;73.89;102524.59;10388115;28;20402;-64
2022/03/06 16:49:22;;;;;;;6.90;2.88;;;;;;;4.60;74.75;102531.47;10419831;28;20057;-64
2022/03/06 16:54:44;;;;;;;9.43;2.90;;;;;;;4.55;75.67;102522.06;10415447;28;20111;-65
2022/03/06 17:00:09;;;;;;;6.72;2.80;;;;;;;4.48;74.90;102530.78;10413257;28;20057;-65
2022/03/06 17:05:31;;;;;;;10.45;3.42;;;;;;;4.43;76.18;102535.16;10387405;28;20073;-64
2022/03/06 17:10:53;;;;;;;9.77;4.05;;;;;;;4.34;76.30;102533.53;10412148;28;20457;-64
2022/03/06 17:16:15;;;;;;;11.60;4.20;;;;;;;4.25;77.08;102532.78;10412925;28;20060;-65
2022/03/06 17:21:37;;;;;;;12.10;4.00;;;;;;;4.24;78.56;102536.22;10432168;28;20099;-64
2022/03/06 17:26:59;;;;;;;9.50;3.67;;;;;;;4.13;78.94;102545.81;10441204;28;20061;-64
2022/03/06 17:32:21;;;;;;;8.05;3.67;;;;;;;4.19;78.19;102553.50;10411877;28;20045;-64
2022/03/06 17:37:42;;;;;;;17.90;6.03;;;;;;;4.11;79.68;102545.84;10410771;28;20059;-64
2022/03/06 17:43:05;;;;;;;16.75;5.93;;;;;;;4.11;80.10;102556.16;10411342;28;20049;-64
2022/03/06 17:48:28;;;;;;;17.65;5.32;;;;;;;4.07;80.73;102545.91;10410688;28;20064;-64
2022/03/06 17:53:50;;;;;;;10.73;4.72;;;;;;;3.96;81.22;102552.88;10397331;28;20053;-64
2022/03/06 17:59:12;;;;;;;9.52;4.45;;;;;;;4.10;80.25;102558.75;10411167;28;20076;-64
2022/03/06 18:04:33;;;;;;;7.28;4.32;;;;;;;4.02;80.63;102555.41;10377128;28;20154;-64
2022/03/06 18:09:55;;;;;;;8.60;4.38;;;;;;;3.89;82.25;102553.81;10407910;28;20402;-63
2022/03/06 18:15:17;;;;;;;7.20;4.60;;;;;;;3.83;83.18;102554.75;10360588;28;20041;-65
2022/03/06 18:20:38;;;;;;;9.70;4.95;;;;;;;3.72;83.27;102555.69;10412489;28;20050;-63
2022/03/06 18:26:01;;;;;;;12.48;4.93;;;;;;;3.70;83.52;102577.22;10456588;28;20073;-63
2022/03/06 18:31:26;;;;;;;10.90;5.15;;;;;;;3.66;85.11;102576.38;10416840;28;20057;-64
2022/03/06 18:36:49;;;;;;;11.70;5.70;;;;;;;3.51;85.35;102585.97;10397330;28;20401;-64
2022/03/06 18:42:11;;;;;;;11.80;7.07;;;;;;;3.52;85.06;102578.22;10383660;28;20049;-64
2022/03/06 18:47:33;;;;;;;16.48;7.45;;;;;;;3.49;86.04;102583.41;10368728;28;20054;-63
2022/03/06 18:52:54;;;;;;;17.55;6.72;;;;;;;3.50;85.66;102585.09;10393507;28;20422;-64
2022/03/06 18:58:16;;;;;;;9.15;5.85;;;;;;;3.48;86.75;102591.13;10408133;28;20052;-64
2022/03/06 19:03:38;;;;;;;7.93;5.43;;;;;;;3.38;87.65;102584.34;10434855;28;20049;-64
2022/03/06 19:09:03;;;;;;;10.07;6.15;;;;;;;3.28;88.48;102586.13;10407697;28;20045;-64
2022/03/06 19:14:27;;;;;;;14.93;6.25;;;;;;;3.27;87.38;102592.16;10407541;28;20049;-63
2022/03/06 19:19:49;;;;;;;11.02;6.00;;;;;;;3.25;86.80;102591.28;10372063;28;20049;-64
2022/03/06 19:25:11;;;;;;;12.43;6.22;;;;;;;3.05;88.05;102590.59;10406542;28;20669;-64
2022/03/06 19:30:33;;;;;;;11.95;6.63;;;;;;;2.97;88.66;102596.66;10407926;28;20057;-64
2022/03/06 19:35:55;;;;;;;13.65;7.05;;;;;;;2.94;89.00;102602.66;10406379;28;20683;-64
2022/03/06 19:41:17;;;;;;;11.68;7.15;;;;;;;2.88;89.44;102602.69;10407195;28;20060;-64
2022/03/06 19:46:39;;;;;;;12.05;6.25;;;;;;;2.89;90.04;102604.41;10407800;28;20050;-64
2022/03/06 19:52:02;;;;;;;18.13;6.88;;;;;;;2.75;89.84;102599.34;10385360;28;20076;-64
2022/03/06 19:57:24;;;;;;;12.68;6.97;;;;;;;2.70;90.63;102595.91;10367210;28;20054;-64
2022/03/06 20:02:46;;;;;;;13.13;6.68;;;;;;;2.73;91.57;102598.47;10391356;28;20049;-64
2022/03/06 20:08:08;;;;;;;10.75;6.20;;;;;;;2.60;90.16;102601.97;10387328;28;20137;-64
2022/03/06 20:13:30;;;;;;;16.70;6.90;;;;;;;2.55;90.79;102601.97;10366041;28;20041;-64
2022/03/06 20:18:52;;;;;;;12.43;5.85;;;;;;;2.36;91.24;102596.88;10399294;28;20061;-64
2022/03/06 20:24:13;;;;;;;13.82;5.53;;;;;;;2.31;90.84;102601.22;10433428;28;20055;-64
2022/03/06 20:29:35;;;;;;;9.88;6.72;;;;;;;2.27;91.21;102605.47;10396983;28;20055;-64
2022/03/06 20:34:57;;;;;;;13.80;6.95;;;;;;;2.24;91.50;102599.50;10380972;28;20521;-64
2022/03/06 20:40:18;;;;;;;11.15;7.38;;;;;;;2.19;92.10;102598.63;10385885;28;20573;-64
2022/03/06 20:45:40;;;;;;;14.95;8.32;;;;;;;2.11;91.46;102602.97;10413502;28;20049;-64
2022/03/06 20:51:02;;;;;;;20.25;10.27;;;;;;;2.25;92.17;102606.34;10413263;28;20445;-64
2022/03/06 20:56:24;;;;;;;19.30;12.07;;;;;;;2.27;92.66;102612.34;10413492;28;20041;-64
2022/03/06 21:01:46;;;;;;;30.52;16.58;;;;;;;2.18;91.81;102612.38;10392639;28;20053;-64
2022/03/06 21:07:08;;;;;;;30.80;15.48;;;;;;;2.14;92.18;102618.38;10409897;28;20050;-64
2022/03/06 21:12:30;;;;;;;28.83;13.93;;;;;;;2.12;91.95;102626.09;10372250;28;20166;-64
2022/03/06 21:17:51;;;;;;;26.38;14.05;;;;;;;1.96;92.56;102624.38;10396392;28;20057;-64
2022/03/06 21:23:16;;;;;;;27.38;14.15;;;;;;;1.85;92.81;102625.28;10445369;28;20048;-64
2022/03/06 21:28:39;;;;;;;25.05;13.68;;;;;;;1.78;92.50;102636.41;10358893;28;20220;-64
2022/03/06 21:34:00;;;;;;;26.48;14.10;;;;;;;1.71;93.07;102631.25;10372046;28;20049;-64
2022/03/06 21:39:22;;;;;;;26.20;14.38;;;;;;;1.66;93.47;102628.69;10374345;28;20056;-64
2022/03/06 21:44:44;;;;;;;30.23;15.57;;;;;;;1.66;93.66;102633.84;10411311;28;20041;-64
2022/03/06 21:50:06;;;;;;;29.13;15.93;;;;;;;1.63;93.83;102638.13;10405512;28;20054;-64
2022/03/06 21:55:28;;;;;;;27.20;15.40;;;;;;;1.53;93.43;102637.25;10370575;28;20333;-64
2022/03/06 22:00:50;;;;;;;23.48;13.88;;;;;;;1.53;94.03;102646.69;10403362;28;20410;-64
2022/03/06 22:06:12;;;;;;;25.30;13.65;;;;;;;1.53;94.18;102637.25;10404558;28;20494;-64
2022/03/06 22:11:35;;;;;;;23.33;13.38;;;;;;;1.42;94.26;102636.41;10370311;28;20057;-65
2022/03/06 22:16:56;;;;;;;30.00;14.00;;;;;;;1.43;93.94;102630.41;10373863;28;20056;-64
2022/03/06 22:22:21;;;;;;;25.65;15.70;;;;;;;1.53;93.88;102631.28;10422310;28;20045;-64
2022/03/06 22:27:43;;;;;;;27.95;16.58;;;;;;;1.61;94.23;102630.41;10378523;28;20054;-64
2022/03/06 22:33:04;;;;;;;33.17;17.27;;;;;;;1.64;93.95;102640.69;10369244;28;20054;-64
2022/03/06 22:38:26;;;;;;;34.53;17.45;;;;;;;1.62;94.54;102642.41;10409718;28;20478;-64
2022/03/06 22:43:50;;;;;;;25.63;15.80;;;;;;;1.65;94.93;102642.41;10400363;28;20530;-64
2022/03/06 22:49:12;;;;;;;27.92;15.48;;;;;;;1.59;94.56;102638.97;10368584;28;20104;-64
2022/03/06 22:54:33;;;;;;;24.98;14.68;;;;;;;1.57;94.78;102636.41;10368036;28;20056;-64
2022/03/06 22:59:55;;;;;;;24.17;14.45;;;;;;;1.36;94.97;102633.81;10368269;28;20061;-64
2022/03/06 23:10:57;;;;;;;25.60;13.60;;;;;;;1.41;94.76;102626.09;10408441;28;20065;-64
2022/03/06 23:16:19;;;;;;;24.75;14.65;;;;;;;1.41;95.29;102626.09;10408551;28;20407;-64
2022/03/06 23:21:42;;;;;;;24.33;13.05;;;;;;;1.27;95.61;102623.53;10407396;28;20060;-64
2022/03/06 23:27:05;;;;;;;23.35;13.52;;;;;;;1.29;95.89;102624.38;10407633;28;20060;-64
2022/03/06 23:32:26;;;;;;;20.40;13.13;;;;;;;1.22;94.77;102617.50;10408128;28;20049;-64
2022/03/06 23:37:48;;;;;;;24.00;12.40;;;;;;;1.11;96.09;102615.78;10393668;28;20056;-64
2022/03/06 23:43:10;;;;;;;25.40;12.88;;;;;;;1.12;95.79;102612.34;10412081;28;20152;-64
2022/03/06 23:48:32;;;;;;;24.17;13.02;;;;;;;1.07;95.38;102614.06;10408005;28;20045;-64
2022/03/06 23:53:54;;;;;;;19.67;12.30;;;;;;;1.02;95.89;102621.72;10407619;28;20046;-64
2022/03/06 23:59:16;;;;;;;20.17;11.98;;;;;;;1.04;95.57;102626.91;10366687;28;20057;-64
